createdAt,value
2023-03-03T00:00:04.016Z,5.18
2023-03-03T00:02:30.626Z,5.68
2023-03-03T00:04:57.430Z,7.05
2023-03-03T00:07:23.863Z,5.40
2023-03-03T00:09:50.872Z,5.32
2023-03-03T00:12:29.351Z,5.30
2023-03-03T00:14:56.062Z,4.53
2023-03-03T00:17:28.466Z,5.50
2023-03-03T00:19:55.458Z,4.90
2023-03-03T00:22:38.465Z,4.90
2023-03-03T00:25:29.004Z,5.20
2023-03-03T00:27:56.180Z,4.65
2023-03-03T00:30:26.941Z,5.32
2023-03-03T00:32:56.045Z,5.25
2023-03-03T00:35:38.675Z,5.53
2023-03-03T00:38:17.171Z,5.68
2023-03-03T00:40:44.059Z,5.50
2023-03-03T00:43:22.043Z,5.35
2023-03-03T00:45:49.644Z,5.55
2023-03-03T00:48:35.309Z,6.07
2023-03-03T00:51:18.208Z,5.13
2023-03-03T00:53:44.636Z,5.80
2023-03-03T00:56:11.016Z,6.35
2023-03-03T00:58:37.588Z,5.90
2023-03-03T01:01:04.091Z,5.63
2023-03-03T01:03:30.779Z,6.43
2023-03-03T01:05:57.351Z,6.15
2023-03-03T01:08:24.295Z,5.97
2023-03-03T01:10:57.499Z,5.28
2023-03-03T01:13:29.241Z,5.25
2023-03-03T01:15:56.094Z,5.32
2023-03-03T01:18:22.803Z,5.47
2023-03-03T01:20:49.258Z,5.95
2023-03-03T01:23:15.708Z,5.80
2023-03-03T01:25:42.318Z,5.85
2023-03-03T01:28:08.924Z,5.82
2023-03-03T01:30:36.366Z,7.05
2023-03-03T01:33:03.773Z,7.55
2023-03-03T01:35:30.769Z,8.95
2023-03-03T01:37:58.373Z,8.50
2023-03-03T01:40:30.617Z,7.70
2023-03-03T01:42:59.867Z,8.25
2023-03-03T01:45:31.846Z,7.93
2023-03-03T01:48:09.051Z,7.03
2023-03-03T01:50:54.123Z,7.18
2023-03-03T01:53:46.373Z,6.65
2023-03-03T01:56:12.890Z,6.70
2023-03-03T01:58:50.089Z,7.25
2023-03-03T02:01:21.964Z,7.38
2023-03-03T02:03:50.826Z,6.40
2023-03-03T02:06:20.474Z,6.38
2023-03-03T02:08:56.153Z,6.43
2023-03-03T02:11:22.862Z,6.75
2023-03-03T02:13:49.398Z,7.15
2023-03-03T02:16:16.307Z,6.88
2023-03-03T02:18:43.182Z,6.88
2023-03-03T02:21:11.052Z,7.07
2023-03-03T02:23:56.801Z,7.80
2023-03-03T02:26:26.467Z,7.53
2023-03-03T02:28:53.491Z,7.53
2023-03-03T02:31:23.147Z,6.75
2023-03-03T02:33:51.586Z,7.90
2023-03-03T02:36:32.950Z,7.28
2023-03-03T02:39:04.827Z,7.85
2023-03-03T02:41:36.642Z,7.18
2023-03-03T02:44:09.398Z,7.90
2023-03-03T02:46:39.513Z,7.90
2023-03-03T02:49:08.619Z,7.55
2023-03-03T02:51:36.873Z,7.57
2023-03-03T02:54:04.396Z,8.18
2023-03-03T02:56:31.175Z,7.95
2023-03-03T02:58:57.908Z,8.63
2023-03-03T03:01:25.029Z,8.27
2023-03-03T03:03:51.786Z,8.02
2023-03-03T03:06:18.979Z,8.00
2023-03-03T03:08:45.390Z,8.00
2023-03-03T03:11:13.068Z,7.68
2023-03-03T03:13:39.521Z,8.90
2023-03-03T03:16:07.371Z,8.38
2023-03-03T03:18:33.815Z,8.43
2023-03-03T03:21:12.143Z,8.57
2023-03-03T03:23:39.567Z,7.13
2023-03-03T03:26:07.363Z,8.30
2023-03-03T03:28:34.244Z,8.18
2023-03-03T03:31:01.633Z,9.02
2023-03-03T03:33:28.488Z,9.25
2023-03-03T03:35:56.316Z,8.88
2023-03-03T03:38:24.124Z,8.90
2023-03-03T03:40:50.644Z,8.68
2023-03-03T03:43:17.149Z,9.18
2023-03-03T03:45:43.919Z,8.75
2023-03-03T03:48:12.280Z,9.25
2023-03-03T03:50:38.851Z,9.82
2023-03-03T03:53:06.567Z,10.25
2023-03-03T03:55:33.509Z,11.18
2023-03-03T03:58:00.049Z,12.57
2023-03-03T04:00:26.546Z,10.45
2023-03-03T04:02:53.245Z,10.65
2023-03-03T04:05:20.148Z,10.55
2023-03-03T04:07:46.555Z,10.98
2023-03-03T04:10:13.439Z,9.95
2023-03-03T04:12:39.918Z,10.70
2023-03-03T04:15:11.665Z,11.48
2023-03-03T04:17:38.860Z,11.30
2023-03-03T04:20:07.506Z,12.70
2023-03-03T04:22:35.881Z,11.93
2023-03-03T04:25:06.230Z,12.32
2023-03-03T04:27:34.230Z,11.48
2023-03-03T04:30:01.399Z,12.73
2023-03-03T04:32:28.524Z,14.60
2023-03-03T04:35:05.661Z,12.50
2023-03-03T04:37:34.163Z,12.45
2023-03-03T04:40:00.666Z,11.95
2023-03-03T04:42:28.426Z,13.68
2023-03-03T04:44:54.795Z,12.15
2023-03-03T04:47:21.303Z,13.13
2023-03-03T04:49:48.106Z,12.25
2023-03-03T04:52:14.518Z,14.18
2023-03-03T04:54:40.931Z,12.98
2023-03-03T04:57:09.299Z,11.95
2023-03-03T04:59:36.452Z,11.13
2023-03-03T05:02:04.615Z,14.65
2023-03-03T05:04:31.729Z,14.02
2023-03-03T05:06:58.312Z,11.77
2023-03-03T05:09:24.747Z,12.90
2023-03-03T05:11:51.641Z,13.75
2023-03-03T05:14:18.400Z,13.65
2023-03-03T05:16:45.013Z,13.73
2023-03-03T05:19:11.668Z,14.80
2023-03-03T05:21:42.516Z,13.55
2023-03-03T05:24:13.542Z,12.48
2023-03-03T05:26:41.161Z,13.85
2023-03-03T05:29:08.587Z,14.48
2023-03-03T05:31:35.438Z,13.40
2023-03-03T05:34:02.051Z,12.48
2023-03-03T05:36:30.016Z,13.73
2023-03-03T05:38:56.618Z,13.07
2023-03-03T05:41:23.574Z,13.85
2023-03-03T05:43:50.211Z,14.52
2023-03-03T05:46:16.780Z,14.52
2023-03-03T05:48:45.224Z,14.13
2023-03-03T05:51:11.627Z,13.65
2023-03-03T05:53:38.312Z,14.25
2023-03-03T05:56:04.970Z,14.63
2023-03-03T05:58:32.239Z,14.02
2023-03-03T06:00:58.717Z,15.40
2023-03-03T06:03:26.255Z,16.48
2023-03-03T06:05:53.532Z,14.65
2023-03-03T06:08:20.374Z,13.90
2023-03-03T06:10:47.033Z,15.90
2023-03-03T06:13:13.574Z,14.98
2023-03-03T06:15:40.638Z,15.20
2023-03-03T06:18:07.178Z,15.30
2023-03-03T06:20:35.333Z,15.95
2023-03-03T06:23:01.951Z,15.27
2023-03-03T06:25:28.705Z,16.25
2023-03-03T06:27:55.131Z,16.58
2023-03-03T06:30:22.293Z,17.33
2023-03-03T06:32:48.944Z,18.98
2023-03-03T06:35:18.637Z,18.13
2023-03-03T06:37:45.258Z,20.98
2023-03-03T06:40:12.320Z,22.52
2023-03-03T06:42:39.262Z,18.85
2023-03-03T06:45:06.097Z,20.83
2023-03-03T06:47:33.825Z,18.15
2023-03-03T06:50:00.232Z,18.75
2023-03-03T06:52:28.308Z,17.65
2023-03-03T06:54:57.954Z,19.25
2023-03-03T06:57:33.567Z,20.00
2023-03-03T07:00:25.231Z,18.65
2023-03-03T07:03:08.270Z,19.02
2023-03-03T07:05:34.855Z,19.20
2023-03-03T07:08:01.759Z,18.02
2023-03-03T07:10:30.984Z,19.05
2023-03-03T07:13:18.477Z,18.80
2023-03-03T07:15:45.981Z,17.92
2023-03-03T07:18:53.253Z,19.52
2023-03-03T07:21:26.384Z,19.40
2023-03-03T07:23:53.662Z,20.23
2023-03-03T07:26:25.303Z,19.00
2023-03-03T07:28:58.516Z,18.52
2023-03-03T07:31:39.992Z,19.05
2023-03-03T07:34:44.405Z,16.95
2023-03-03T07:37:18.514Z,17.88
2023-03-03T07:39:47.369Z,18.27
2023-03-03T07:42:20.971Z,17.95
2023-03-03T07:44:48.763Z,17.00
2023-03-03T07:47:26.997Z,17.38
2023-03-03T07:50:18.484Z,18.30
2023-03-03T07:52:58.116Z,17.70
2023-03-03T07:55:35.280Z,17.90
2023-03-03T07:58:21.298Z,16.80
2023-03-03T08:01:25.005Z,18.35
2023-03-03T08:03:52.408Z,17.13
2023-03-03T08:06:26.326Z,19.35
2023-03-03T08:08:52.763Z,17.75
2023-03-03T08:11:19.275Z,18.80
2023-03-03T08:13:46.099Z,18.27
2023-03-03T08:16:12.915Z,19.48
2023-03-03T08:18:49.081Z,15.45
2023-03-03T08:21:23.205Z,18.20
2023-03-03T08:23:51.608Z,18.27
2023-03-03T08:26:19.515Z,15.57
2023-03-03T08:28:47.084Z,17.27
2023-03-03T08:31:22.515Z,16.52
2023-03-03T08:33:59.006Z,18.50
2023-03-03T08:36:25.806Z,16.58
2023-03-03T08:38:53.104Z,15.50
2023-03-03T08:41:19.669Z,17.00
2023-03-03T08:43:46.502Z,17.83
2023-03-03T08:46:13.016Z,18.23
2023-03-03T08:48:39.686Z,18.33
2023-03-03T08:51:06.848Z,18.70
2023-03-03T08:53:36.380Z,17.55
2023-03-03T08:56:04.748Z,16.60
2023-03-03T08:58:35.465Z,15.93
2023-03-03T09:01:02.556Z,18.00
2023-03-03T09:03:29.846Z,17.73
2023-03-03T09:05:56.364Z,17.40
2023-03-03T09:08:22.774Z,17.30
2023-03-03T09:10:49.576Z,18.02
2023-03-03T09:13:19.360Z,15.40
2023-03-03T09:15:46.720Z,16.48
2023-03-03T09:18:35.247Z,15.82
2023-03-03T09:21:01.800Z,16.05
2023-03-03T09:23:35.765Z,15.70
2023-03-03T09:26:29.990Z,16.23
2023-03-03T09:29:04.979Z,16.30
2023-03-03T09:34:19.539Z,15.45
2023-03-03T09:36:46.094Z,15.93
2023-03-03T09:39:20.290Z,18.55
2023-03-03T09:42:17.125Z,16.75
2023-03-03T09:44:45.937Z,14.90
2023-03-03T09:47:27.668Z,15.43
2023-03-03T09:50:18.774Z,14.90
2023-03-03T09:52:58.689Z,15.23
2023-03-03T09:55:59.439Z,13.90
2023-03-03T09:58:31.702Z,15.05
2023-03-03T10:01:26.156Z,15.60
2023-03-03T10:04:16.223Z,16.92
2023-03-03T10:06:49.520Z,14.10
2023-03-03T10:09:43.396Z,15.75
2023-03-03T10:12:32.801Z,14.68
2023-03-03T10:15:14.468Z,15.05
2023-03-03T10:17:50.806Z,15.27
2023-03-03T10:20:50.700Z,15.57
2023-03-03T10:23:21.068Z,14.15
2023-03-03T10:25:53.349Z,14.60
2023-03-03T10:28:30.380Z,16.55
2023-03-03T10:31:20.044Z,14.90
2023-03-03T10:33:57.637Z,15.02
2023-03-03T10:36:46.596Z,15.73
2023-03-03T10:39:55.092Z,15.40
2023-03-03T10:42:31.123Z,14.93
2023-03-03T10:45:03.448Z,13.93
2023-03-03T10:48:03.248Z,14.18
2023-03-03T10:51:00.082Z,14.35
2023-03-03T10:53:41.108Z,14.00
2023-03-03T10:56:19.623Z,13.23
2023-03-03T10:58:55.111Z,13.90
2023-03-03T11:01:53.697Z,13.80
2023-03-03T11:04:26.609Z,12.13
2023-03-03T11:06:58.872Z,12.32
2023-03-03T11:09:47.149Z,13.90
2023-03-03T11:12:29.584Z,12.02
2023-03-03T11:15:18.364Z,13.00
2023-03-03T11:18:13.612Z,12.68
2023-03-03T11:20:55.161Z,13.80
2023-03-03T11:23:43.394Z,11.15
2023-03-03T11:26:14.955Z,11.88
2023-03-03T11:28:53.883Z,11.52
2023-03-03T11:31:59.392Z,11.93
2023-03-03T11:34:50.236Z,12.23
2023-03-03T11:37:26.854Z,12.23
2023-03-03T11:39:58.414Z,11.75
2023-03-03T11:42:34.794Z,12.30
2023-03-03T11:45:26.388Z,11.73
2023-03-03T11:48:01.066Z,11.88
2023-03-03T11:50:32.842Z,11.50
2023-03-03T11:53:24.270Z,11.63
2023-03-03T11:56:00.031Z,12.02
2023-03-03T11:58:29.363Z,11.00
2023-03-03T12:01:14.371Z,10.52
2023-03-03T12:03:48.949Z,10.60
2023-03-03T12:06:24.979Z,11.27
2023-03-03T12:09:24.171Z,11.52
2023-03-03T12:12:08.484Z,12.18
2023-03-03T12:15:36.326Z,10.88
2023-03-03T12:18:42.158Z,11.05
2023-03-03T12:21:29.803Z,11.55
2023-03-03T12:24:19.484Z,11.07
2023-03-03T12:26:48.870Z,10.13
2023-03-03T12:29:25.020Z,11.18
2023-03-03T12:31:57.690Z,11.10
2023-03-03T12:34:39.701Z,11.52
2023-03-03T12:37:27.118Z,10.88
2023-03-03T12:40:33.674Z,10.63
2023-03-03T12:43:21.746Z,11.20
2023-03-03T12:46:09.586Z,11.55
2023-03-03T12:48:43.300Z,11.85
2023-03-03T12:51:48.859Z,10.50
2023-03-03T12:54:24.906Z,9.82
2023-03-03T12:56:57.134Z,10.80
2023-03-03T12:59:27.806Z,11.43
2023-03-03T13:02:04.492Z,11.60
2023-03-03T13:04:46.850Z,10.43
2023-03-03T13:07:36.112Z,10.93
2023-03-03T13:10:14.685Z,11.27
2023-03-03T13:13:11.542Z,10.57
2023-03-03T13:15:55.890Z,11.48
2023-03-03T13:18:26.061Z,11.60
2023-03-03T13:21:01.243Z,10.85
2023-03-03T13:23:51.505Z,11.38
2023-03-03T13:26:44.816Z,11.02
2023-03-03T13:29:23.982Z,9.07
2023-03-03T13:32:01.947Z,10.43
2023-03-03T13:34:43.935Z,11.13
2023-03-03T13:37:17.411Z,9.52
2023-03-03T13:39:57.268Z,11.02
2023-03-03T13:42:44.257Z,10.95
2023-03-03T13:45:28.767Z,10.23
2023-03-03T13:48:32.362Z,10.50
2023-03-03T13:51:05.236Z,9.45
2023-03-03T13:53:41.626Z,10.18
2023-03-03T13:56:20.417Z,10.88
2023-03-03T13:58:59.642Z,9.75
2023-03-03T14:01:43.190Z,10.10
2023-03-03T14:04:18.710Z,10.15
2023-03-03T14:06:56.134Z,9.50
2023-03-03T14:09:52.278Z,10.77
2023-03-03T14:12:26.782Z,10.23
2023-03-03T14:15:04.257Z,10.52
2023-03-03T14:18:02.735Z,10.55
2023-03-03T14:20:32.403Z,11.45
2023-03-03T14:23:08.952Z,11.32
2023-03-03T14:25:57.254Z,11.88
2023-03-03T14:28:28.992Z,12.95
2023-03-03T14:31:09.971Z,12.55
2023-03-03T14:33:36.960Z,13.07
2023-03-03T14:36:06.073Z,14.43
2023-03-03T14:38:32.892Z,15.13
2023-03-03T14:41:12.307Z,15.38
2023-03-03T14:43:57.769Z,15.00
2023-03-03T14:48:57.239Z,15.55
2023-03-03T14:51:41.829Z,16.77
2023-03-03T14:54:15.444Z,19.43
2023-03-03T14:56:58.456Z,18.30
2023-03-03T14:59:26.895Z,18.30
2023-03-03T15:02:18.556Z,17.83
2023-03-03T15:04:46.128Z,15.95
2023-03-03T15:07:36.773Z,17.15
2023-03-03T15:10:07.589Z,16.40
2023-03-03T15:12:36.805Z,18.15
2023-03-03T15:15:06.301Z,17.77
2023-03-03T15:17:54.551Z,15.90
2023-03-03T15:20:47.840Z,16.63
2023-03-03T15:23:20.675Z,15.18
2023-03-03T15:26:05.645Z,17.40
2023-03-03T15:28:43.608Z,17.10
2023-03-03T15:31:30.182Z,17.85
2023-03-03T15:34:17.181Z,16.17
2023-03-03T15:37:08.080Z,16.27
2023-03-03T15:39:53.219Z,16.45
2023-03-03T15:42:35.803Z,15.55
2023-03-03T15:45:37.866Z,16.63
2023-03-03T15:48:04.294Z,16.92
2023-03-03T15:51:01.907Z,16.70
2023-03-03T15:53:34.315Z,15.98
2023-03-03T15:56:25.846Z,16.50
2023-03-03T15:59:01.878Z,15.77
2023-03-03T16:01:48.872Z,14.43
2023-03-03T16:04:19.903Z,16.48
2023-03-03T16:07:00.866Z,15.68
2023-03-03T16:10:00.660Z,15.45
2023-03-03T16:12:39.360Z,16.55
2023-03-03T16:15:19.679Z,14.23
2023-03-03T16:17:57.064Z,16.00
2023-03-03T16:20:42.539Z,17.00
2023-03-03T16:26:19.241Z,16.10
2023-03-03T16:29:27.128Z,16.70
2023-03-03T16:31:54.988Z,17.30
2023-03-03T16:34:33.468Z,15.82
2023-03-03T16:37:28.554Z,16.42
2023-03-03T16:40:01.216Z,16.77
2023-03-03T16:42:30.189Z,17.27
2023-03-03T16:45:06.856Z,16.55
2023-03-03T16:47:54.653Z,18.08
2023-03-03T16:50:35.416Z,16.67
2023-03-03T16:53:37.836Z,15.93
2023-03-03T16:56:23.795Z,18.50
2023-03-03T16:59:04.492Z,20.25
2023-03-03T17:02:06.002Z,21.30
2023-03-03T17:05:04.874Z,19.05
2023-03-03T17:07:48.763Z,19.20
2023-03-03T17:10:33.732Z,19.08
2023-03-03T17:13:21.385Z,19.30
2023-03-03T17:15:56.848Z,19.80
2023-03-03T17:18:41.923Z,21.13
2023-03-03T17:21:33.587Z,21.80
2023-03-03T17:24:06.810Z,20.38
2023-03-03T17:26:52.117Z,18.17
2023-03-03T17:29:33.925Z,22.75
2023-03-03T17:32:28.212Z,19.73
2023-03-03T17:35:26.919Z,24.83
2023-03-03T17:38:32.947Z,22.13
2023-03-03T17:41:14.209Z,20.08
2023-03-03T17:44:16.641Z,21.63
2023-03-03T17:46:51.668Z,19.77
2023-03-03T17:52:09.109Z,17.30
2023-03-03T17:55:09.184Z,20.30
2023-03-03T17:57:56.822Z,20.30
2023-03-03T18:00:38.411Z,19.58
2023-03-03T18:03:40.473Z,20.00
2023-03-03T18:06:38.213Z,17.90
2023-03-03T18:09:14.898Z,19.55
2023-03-03T18:12:01.217Z,20.85
2023-03-03T18:14:34.050Z,21.45
2023-03-03T18:17:29.456Z,20.48
2023-03-03T18:20:11.038Z,21.10
2023-03-03T18:22:48.606Z,21.13
2023-03-03T18:25:22.137Z,22.17
2023-03-03T18:28:08.741Z,21.88
2023-03-03T18:30:58.450Z,20.80
2023-03-03T18:33:44.739Z,22.33
2023-03-03T18:36:15.712Z,22.45
2023-03-03T18:38:46.796Z,21.15
2023-03-03T18:41:24.125Z,21.75
2023-03-03T18:43:55.171Z,22.63
2023-03-03T18:46:25.010Z,20.52
2023-03-03T18:48:57.876Z,21.50
2023-03-03T18:51:39.797Z,23.02
2023-03-03T18:54:12.529Z,21.50
2023-03-03T18:57:17.873Z,21.75
2023-03-03T18:59:58.398Z,22.42
2023-03-03T19:02:42.406Z,20.92
2023-03-03T19:05:40.642Z,20.90
2023-03-03T19:08:26.258Z,20.98
2023-03-03T19:10:57.284Z,19.77
2023-03-03T19:13:32.996Z,20.92
2023-03-03T19:16:02.160Z,19.95
2023-03-03T19:18:36.112Z,22.75
2023-03-03T19:21:07.349Z,21.40
2023-03-03T19:23:52.533Z,23.10
2023-03-03T19:26:25.360Z,22.33
2023-03-03T19:29:15.296Z,23.40
2023-03-03T19:31:51.265Z,24.25
2023-03-03T19:34:41.369Z,27.83
2023-03-03T19:37:36.265Z,22.00
2023-03-03T19:40:23.029Z,25.63
2023-03-03T19:43:02.669Z,20.48
2023-03-03T19:45:41.123Z,20.42
2023-03-03T19:48:42.136Z,18.25
2023-03-03T19:51:33.828Z,20.77
2023-03-03T19:54:03.149Z,21.42
2023-03-03T19:56:50.036Z,18.27
2023-03-03T19:59:21.829Z,20.45
2023-03-03T20:01:52.547Z,21.60
2023-03-03T20:04:45.064Z,22.48
2023-03-03T20:07:22.546Z,19.33
2023-03-03T20:10:06.960Z,21.33
2023-03-03T20:13:00.170Z,22.30
2023-03-03T20:15:39.840Z,22.55
2023-03-03T20:18:27.018Z,19.42
2023-03-03T20:21:21.880Z,19.80
2023-03-03T20:24:05.582Z,20.42
2023-03-03T20:26:41.246Z,20.20
2023-03-03T20:29:26.542Z,21.27
2023-03-03T20:34:34.915Z,19.52
2023-03-03T20:37:21.181Z,18.75
2023-03-03T20:40:18.237Z,21.25
2023-03-03T20:42:58.962Z,24.23
2023-03-03T20:45:37.766Z,19.65
2023-03-03T20:48:13.172Z,23.83
2023-03-03T20:50:40.086Z,21.05
2023-03-03T20:53:13.978Z,24.75
2023-03-03T20:56:07.630Z,22.97
2023-03-03T20:58:46.505Z,22.20
2023-03-03T21:01:16.801Z,21.83
2023-03-03T21:03:45.219Z,26.00
2023-03-03T21:06:17.850Z,25.15
2023-03-03T21:08:54.594Z,27.20
2023-03-03T21:11:31.724Z,24.42
2023-03-03T21:13:59.796Z,23.70
2023-03-03T21:16:26.312Z,26.30
2023-03-03T21:18:58.844Z,23.25
2023-03-03T21:21:30.907Z,27.25
2023-03-03T21:23:59.034Z,25.27
2023-03-03T21:26:46.178Z,26.25
2023-03-03T21:29:27.977Z,28.05
2023-03-03T21:31:56.977Z,26.35
2023-03-03T21:34:24.860Z,27.58
2023-03-03T21:36:52.557Z,24.95
2023-03-03T21:39:43.913Z,26.30
2023-03-03T21:42:12.927Z,25.42
2023-03-03T21:44:49.690Z,26.85
2023-03-03T21:47:18.696Z,26.35
2023-03-03T21:49:46.836Z,27.80
2023-03-03T21:52:16.321Z,23.98
2023-03-03T21:54:45.686Z,23.75
2023-03-03T21:57:12.589Z,26.20
2023-03-03T21:59:39.798Z,27.58
2023-03-03T22:02:07.444Z,26.30
2023-03-03T22:04:34.694Z,26.25
2023-03-03T22:07:01.501Z,25.40
2023-03-03T22:09:28.011Z,25.88
2023-03-03T22:11:54.549Z,28.20
2023-03-03T22:14:20.934Z,26.20
2023-03-03T22:16:47.542Z,30.63
2023-03-03T22:19:14.040Z,29.50
2023-03-03T22:21:41.214Z,29.35
2023-03-03T22:24:08.108Z,28.95
2023-03-03T22:26:35.562Z,28.08
2023-03-03T22:29:02.015Z,26.90
2023-03-03T22:31:28.996Z,25.15
2023-03-03T22:33:55.580Z,27.55
2023-03-03T22:36:22.024Z,26.88
2023-03-03T22:38:49.402Z,27.58
2023-03-03T22:41:16.117Z,28.10
2023-03-03T22:43:43.182Z,29.65
2023-03-03T22:46:10.612Z,31.70
2023-03-03T22:48:37.738Z,29.95
2023-03-03T22:51:05.224Z,28.70
2023-03-03T22:53:31.678Z,30.95
2023-03-03T22:55:58.305Z,32.15
2023-03-03T22:58:27.303Z,29.40
2023-03-03T23:00:54.597Z,29.92
2023-03-03T23:03:21.699Z,28.83
2023-03-03T23:05:51.636Z,28.85
2023-03-03T23:08:19.235Z,27.02
2023-03-03T23:10:46.064Z,30.80
2023-03-03T23:13:13.283Z,29.25
2023-03-03T23:15:40.110Z,29.52
2023-03-03T23:18:06.778Z,29.30
2023-03-03T23:20:33.470Z,29.30
2023-03-03T23:23:00.205Z,27.65
2023-03-03T23:25:28.880Z,26.92
2023-03-03T23:27:56.710Z,30.70
2023-03-03T23:30:23.796Z,31.48
2023-03-03T23:32:51.609Z,28.48
2023-03-03T23:35:18.450Z,30.25
2023-03-03T23:37:45.869Z,30.60
2023-03-03T23:40:14.589Z,30.58
2023-03-03T23:42:41.553Z,29.75
2023-03-03T23:45:08.971Z,31.77
2023-03-03T23:47:36.020Z,30.40
2023-03-03T23:50:02.470Z,32.63
2023-03-03T23:52:29.363Z,31.15
2023-03-03T23:54:55.820Z,31.10
2023-03-03T23:57:22.357Z,33.00
2023-03-03T23:59:48.776Z,31.90
